Time,TemperatureF,DewpointF,PressureIn,WindDirection,WindDirectionDegrees,WindSpeedMPH,WindSpeedGustMPH,Humidity,HourlyPrecipIn,Conditions,Clouds,dailyrainin,SoftwareType,DateUTC
2013-01-07 00:09:00,42.1,41.6,29.90,South,180,3.7,-999.0,98,-99.99,,,0.00,Acu-Link.com,2013-01-07 08:09:00,
2013-01-07 00:24:00,43.3,40.6,29.91,South,180,2.7,-999.0,90,-99.99,,,0.00,Acu-Link.com,2013-01-07 08:24:00,
2013-01-07 00:40:00,43.0,42.5,29.90,SSE,157,3.2,-999.0,98,-99.99,,,0.00,Acu-Link.com,2013-01-07 08:40:00,
2013-01-07 00:55:00,42.8,40.9,29.89,SSW,202,0.0,-999.0,93,-99.99,,,0.00,Acu-Link.com,2013-01-07 08:55:00,
2013-01-07 01:10:00,45.3,44.8,29.90,ESE,112,0.0,-999.0,98,-99.99,,,0.00,Acu-Link.com,2013-01-07 09:10:00,
2013-01-07 01:25:00,43.2,42.7,29.89,North,0,0.0,-999.0,98,-99.99,,,0.00,Acu-Link.com,2013-01-07 09:25:00,
2013-01-07 01:41:00,41.7,41.2,29.90,SE,135,2.7,-999.0,98,-99.99,,,0.00,Acu-Link.com,2013-01-07 09:41:00,
2013-01-07 01:56:00,44.1,43.6,29.89,ESE,112,0.0,-999.0,98,-99.99,,,0.00,Acu-Link.com,2013-01-07 09:56:00,
2013-01-07 02:11:00,42.4,41.9,29.88,WSW,247,0.0,-999.0,98,-99.99,,,0.00,Acu-Link.com,2013-01-07 10:11:00,
2013-01-07 02:27:00,41.5,41.0,29.88,ENE,67,1.7,-999.0,98,-99.99,,,0.00,Acu-Link.com,2013-01-07 10:27:00,
2013-01-07 02:42:00,40.8,40.3,29.89,SE,135,0.0,-999.0,98,-99.99,,,0.00,Acu-Link.com,2013-01-07 10:42:00,
2013-01-07 02:57:00,41.9,40.8,29.88,South,180,0.0,-999.0,96,-99.99,,,0.00,Acu-Link.com,2013-01-07 10:57:00,
2013-01-07 03:13:00,44.4,43.1,29.88,SSW,202,0.0,-999.0,95,-99.99,,,0.00,Acu-Link.com,2013-01-07 11:13:00,
2013-01-07 03:28:00,45.5,45.0,29.87,SSE,157,1.7,-999.0,98,-99.99,,,0.00,Acu-Link.com,2013-01-07 11:28:00,
2013-01-07 03:43:00,40.1,39.6,29.88,South,180,0.0,-999.0,98,-99.99,,,0.00,Acu-Link.com,2013-01-07 11:43:00,
2013-01-07 03:59:00,39.6,39.1,29.89,NW,315,1.7,-999.0,98,-99.99,,,0.00,Acu-Link.com,2013-01-07 11:59:00,
2013-01-07 04:14:00,41.2,40.7,29.87,South,180,2.7,-999.0,98,-99.99,,,0.00,Acu-Link.com,2013-01-07 12:14:00,
2013-01-07 04:29:00,44.1,43.6,29.88,South,180,2.7,-999.0,98,-99.99,,,0.00,Acu-Link.com,2013-01-07 12:29:00,
2013-01-07 04:44:00,38.7,38.2,29.89,ESE,112,3.7,-999.0,98,-99.99,,,0.00,Acu-Link.com,2013-01-07 12:44:00,
2013-01-07 05:00:00,38.7,38.2,29.90,SSE,157,4.2,-999.0,98,-99.99,,,0.00,Acu-Link.com,2013-01-07 13:00:00,
2013-01-07 05:15:00,39.2,38.7,29.89,SSE,157,2.7,-999.0,98,-99.99,,,0.00,Acu-Link.com,2013-01-07 13:15:00,
2013-01-07 05:30:00,39.0,38.5,29.90,SSE,157,4.2,-999.0,98,-99.99,,,0.00,Acu-Link.com,2013-01-07 13:30:00,
2013-01-07 05:46:00,50.2,49.7,29.90,SSE,157,1.7,-999.0,98,-99.99,,,0.00,Acu-Link.com,2013-01-07 13:46:00,
2013-01-07 06:01:00,36.5,36.0,29.91,North,0,1.7,-999.0,98,-99.99,,,0.00,Acu-Link.com,2013-01-07 14:01:00,
2013-01-07 06:16:00,36.3,35.8,29.92,North,0,3.7,-999.0,98,-99.99,,,0.00,Acu-Link.com,2013-01-07 14:16:00,
2013-01-07 06:32:00,36.9,36.4,29.93,SSE,157,2.7,-999.0,98,-99.99,,,0.00,Acu-Link.com,2013-01-07 14:32:00,
2013-01-07 06:47:00,36.5,36.0,29.93,SSE,157,3.2,-999.0,98,-99.99,,,0.00,Acu-Link.com,2013-01-07 14:47:00,
2013-01-07 07:02:00,36.5,36.0,29.95,SSW,202,3.7,-999.0,98,-99.99,,,0.00,Acu-Link.com,2013-01-07 15:02:00,
2013-01-07 07:17:00,40.5,40.0,29.94,SSW,202,3.2,-999.0,98,-99.99,,,0.00,Acu-Link.com,2013-01-07 15:17:00,
2013-01-07 07:33:00,42.4,41.9,29.94,SSE,157,4.2,-999.0,98,-99.99,,,0.00,Acu-Link.com,2013-01-07 15:33:00,
2013-01-07 07:48:00,39.7,39.2,29.95,SSE,157,3.7,-999.0,98,-99.99,,,0.00,Acu-Link.com,2013-01-07 15:48:00,
2013-01-07 08:03:00,41.0,38.6,29.96,NNE,22,2.2,-999.0,91,-99.99,,,0.00,Acu-Link.com,2013-01-07 16:03:00,
2013-01-07 08:19:00,41.5,37.6,29.98,North,0,0.0,-999.0,86,-99.99,,,0.00,Acu-Link.com,2013-01-07 16:19:00,
2013-01-07 08:34:00,43.3,37.9,29.98,South,180,4.2,-999.0,81,-99.99,,,0.00,Acu-Link.com,2013-01-07 16:34:00,
2013-01-07 08:49:00,47.8,42.6,29.97,East,90,4.2,-999.0,82,-99.99,,,0.00,Acu-Link.com,2013-01-07 16:49:00,
2013-01-07 09:05:00,45.7,38.9,29.98,ESE,112,3.2,-999.0,77,-99.99,,,0.00,Acu-Link.com,2013-01-07 17:05:00,
2013-01-07 09:20:00,46.4,39.6,29.98,West,270,2.2,-999.0,77,-99.99,,,0.00,Acu-Link.com,2013-01-07 17:20:00,
2013-01-07 09:35:00,46.6,37.7,29.98,West,270,2.2,-999.0,71,-99.99,,,0.00,Acu-Link.com,2013-01-07 17:35:00,
2013-01-07 09:50:00,47.7,38.0,29.97,West,270,7.3,-999.0,69,-99.99,,,0.00,Acu-Link.com,2013-01-07 17:50:00,
2013-01-07 10:06:00,48.0,38.7,29.98,NW,315,2.2,-999.0,70,-99.99,,,0.00,Acu-Link.com,2013-01-07 18:06:00,
2013-01-07 10:21:00,49.5,37.0,29.98,SW,225,1.7,-999.0,62,-99.99,,,0.00,Acu-Link.com,2013-01-07 18:21:00,
2013-01-07 10:36:00,53.2,35.5,29.96,WNW,292,3.7,-999.0,51,-99.99,,,0.00,Acu-Link.com,2013-01-07 18:36:00,
2013-01-07 10:52:00,54.9,36.1,29.96,WSW,247,2.7,-999.0,49,-99.99,,,0.00,Acu-Link.com,2013-01-07 18:52:00,
2013-01-07 11:07:00,54.5,34.1,29.95,SW,225,6.3,-999.0,46,-99.99,,,0.00,Acu-Link.com,2013-01-07 19:07:00,
2013-01-07 11:22:00,54.3,34.0,29.93,SW,225,0.0,-999.0,46,-99.99,,,0.00,Acu-Link.com,2013-01-07 19:22:00,
2013-01-07 11:38:00,56.7,35.0,29.91,SSE,157,4.2,-999.0,44,-99.99,,,0.00,Acu-Link.com,2013-01-07 19:38:00,
2013-01-07 11:53:00,57.4,34.5,29.91,SSE,157,3.7,-999.0,42,-99.99,,,0.00,Acu-Link.com,2013-01-07 19:53:00,
2013-01-07 12:08:00,58.6,34.4,29.89,SSE,157,3.7,-999.0,40,-99.99,,,0.00,Acu-Link.com,2013-01-07 20:08:00,
2013-01-07 12:24:00,59.4,33.1,29.88,South,180,6.8,-999.0,37,-99.99,,,0.00,Acu-Link.com,2013-01-07 20:24:00,
2013-01-07 12:39:00,60.3,33.9,29.87,South,180,2.7,-999.0,37,-99.99,,,0.00,Acu-Link.com,2013-01-07 20:39:00,
2013-01-07 12:54:00,59.7,32.7,29.88,NNW,337,3.2,-999.0,36,-99.99,,,0.00,Acu-Link.com,2013-01-07 20:54:00,
2013-01-07 13:09:00,61.5,31.4,29.87,West,270,5.3,-999.0,32,-99.99,,,0.00,Acu-Link.com,2013-01-07 21:09:00,
2013-01-07 13:25:00,61.3,28.8,29.86,NW,315,2.7,-999.0,29,-99.99,,,0.00,Acu-Link.com,2013-01-07 21:25:00,
2013-01-07 13:40:00,61.7,29.1,29.86,West,270,6.8,-999.0,29,-99.99,,,0.00,Acu-Link.com,2013-01-07 21:40:00,
2013-01-07 13:55:00,62.4,28.0,29.86,West,270,5.8,-999.0,27,-99.99,,,0.00,Acu-Link.com,2013-01-07 21:55:00,
2013-01-07 14:10:00,63.0,25.6,29.87,West,270,6.3,-999.0,24,-99.99,,,0.00,Acu-Link.com,2013-01-07 22:10:00,
2013-01-07 14:26:00,64.2,24.6,29.86,WSW,247,2.2,-999.0,22,-99.99,,,0.00,Acu-Link.com,2013-01-07 22:26:00,
2013-01-07 14:41:00,63.9,22.1,29.86,West,270,4.7,-999.0,20,-99.99,,,0.00,Acu-Link.com,2013-01-07 22:41:00,
2013-01-07 14:56:00,64.8,21.6,29.86,WSW,247,4.7,-999.0,19,-99.99,,,0.00,Acu-Link.com,2013-01-07 22:56:00,
2013-01-07 15:12:00,64.4,18.7,29.86,NNW,337,6.3,-999.0,17,-99.99,,,0.00,Acu-Link.com,2013-01-07 23:12:00,
2013-01-07 15:27:00,63.7,23.0,29.86,West,270,9.4,-999.0,21,-99.99,,,0.00,Acu-Link.com,2013-01-07 23:27:00,
2013-01-07 15:42:00,62.4,23.1,29.87,WNW,292,13.5,-999.0,22,-99.99,,,0.00,Acu-Link.com,2013-01-07 23:42:00,
2013-01-07 15:57:00,60.8,23.8,29.87,WNW,292,10.9,-999.0,24,-99.99,,,0.00,Acu-Link.com,2013-01-07 23:57:00,
2013-01-07 16:12:00,61.2,24.1,29.88,West,270,8.9,-999.0,24,-99.99,,,0.00,Acu-Link.com,2013-01-08 00:12:00,
2013-01-07 16:28:00,60.6,22.6,29.89,NW,315,9.9,-999.0,23,-99.99,,,0.00,Acu-Link.com,2013-01-08 00:28:00,
2013-01-07 16:43:00,59.0,24.2,29.88,NW,315,9.4,-999.0,26,-99.99,,,0.00,Acu-Link.com,2013-01-08 00:43:00,
2013-01-07 16:58:00,57.6,24.7,29.89,North,0,3.7,-999.0,28,-99.99,,,0.00,Acu-Link.com,2013-01-08 00:58:00,
2013-01-07 17:13:00,56.3,25.3,29.90,NE,45,1.7,-999.0,30,-99.99,,,0.00,Acu-Link.com,2013-01-08 01:13:00,
2013-01-07 17:29:00,54.7,26.2,29.89,SSE,157,2.7,-999.0,33,-99.99,,,0.00,Acu-Link.com,2013-01-08 01:29:00,
2013-01-07 17:44:00,52.9,27.3,29.90,South,180,0.0,-999.0,37,-99.99,,,0.00,Acu-Link.com,2013-01-08 01:44:00,
2013-01-07 18:00:00,51.1,27.6,29.89,SSW,202,6.3,-999.0,40,-99.99,,,0.00,Acu-Link.com,2013-01-08 02:00:00,
2013-01-07 18:15:00,51.3,25.9,29.90,SE,135,3.7,-999.0,37,-99.99,,,0.00,Acu-Link.com,2013-01-08 02:15:00,
2013-01-07 18:30:00,50.2,26.8,29.89,South,180,4.2,-999.0,40,-99.99,,,0.00,Acu-Link.com,2013-01-08 02:30:00,
2013-01-07 18:45:00,49.1,27.0,29.90,SSW,202,1.1,-999.0,42,-99.99,,,0.00,Acu-Link.com,2013-01-08 02:45:00,
2013-01-07 19:01:00,48.6,27.1,29.91,South,180,3.2,-999.0,43,-99.99,,,0.00,Acu-Link.com,2013-01-08 03:01:00,
2013-01-07 19:16:00,47.5,27.2,29.90,SW,225,2.7,-999.0,45,-99.99,,,0.00,Acu-Link.com,2013-01-08 03:16:00,
2013-01-07 19:31:00,46.4,27.8,29.92,SSW,202,1.7,-999.0,48,-99.99,,,0.00,Acu-Link.com,2013-01-08 03:31:00,
2013-01-07 19:47:00,45.7,27.6,29.92,ESE,112,3.7,-999.0,49,-99.99,,,0.00,Acu-Link.com,2013-01-08 03:47:00,
2013-01-07 20:02:00,45.3,27.3,29.91,SSE,157,2.7,-999.0,49,-99.99,,,0.00,Acu-Link.com,2013-01-08 04:02:00,
2013-01-07 20:17:00,45.0,27.0,29.93,SE,135,0.0,-999.0,49,-99.99,,,0.00,Acu-Link.com,2013-01-08 04:17:00,
2013-01-07 20:33:00,44.2,27.2,29.93,ESE,112,3.2,-999.0,51,-99.99,,,0.00,Acu-Link.com,2013-01-08 04:33:00,
2013-01-07 20:48:00,44.2,27.7,29.94,South,180,4.2,-999.0,52,-99.99,,,0.00,Acu-Link.com,2013-01-08 04:48:00,
2013-01-07 21:03:00,46.0,30.7,29.94,ESE,112,2.7,-999.0,55,-99.99,,,0.00,Acu-Link.com,2013-01-08 05:03:00,
2013-01-07 21:19:00,43.2,27.7,29.95,SSE,157,4.2,-999.0,54,-99.99,,,0.00,Acu-Link.com,2013-01-08 05:19:00,
2013-01-07 21:34:00,45.0,28.4,29.94,South,180,3.2,-999.0,52,-99.99,,,0.00,Acu-Link.com,2013-01-08 05:34:00,
2013-01-07 21:49:00,42.6,25.8,29.95,ESE,112,3.7,-999.0,51,-99.99,,,0.00,Acu-Link.com,2013-01-08 05:49:00,
2013-01-07 22:04:00,43.3,25.9,29.95,SSE,157,4.2,-999.0,50,-99.99,,,0.00,Acu-Link.com,2013-01-08 06:04:00,
2013-01-07 22:19:00,42.4,25.1,29.96,SE,135,4.7,-999.0,50,-99.99,,,0.00,Acu-Link.com,2013-01-08 06:19:00,
2013-01-07 22:35:00,46.8,32.4,29.96,SSE,157,5.3,-999.0,57,-99.99,,,0.00,Acu-Link.com,2013-01-08 06:35:00,
2013-01-07 22:50:00,44.4,24.9,29.95,SSE,157,4.7,-999.0,46,-99.99,,,0.00,Acu-Link.com,2013-01-08 06:50:00,
2013-01-07 23:05:00,44.6,24.6,29.95,South,180,5.3,-999.0,45,-99.99,,,0.00,Acu-Link.com,2013-01-08 07:05:00,
2013-01-07 23:20:00,46.2,25.0,29.95,SSE,157,4.7,-999.0,43,-99.99,,,0.00,Acu-Link.com,2013-01-08 07:20:00,
2013-01-07 23:36:00,45.1,26.6,29.95,South,180,3.7,-999.0,48,-99.99,,,0.00,Acu-Link.com,2013-01-08 07:36:00,
2013-01-07 23:51:00,43.2,25.3,29.97,East,90,3.7,-999.0,49,-99.99,,,0.00,Acu-Link.com,2013-01-08 07:51:00,